sensor_id;sensor_type;location;lat;lon;timestamp;pressure;altitude;pressure_sealevel;temperature;humidity
48622;BME280;34421;48.944;9.460;2022-11-25T00:00:09;98454.25;;;4.80;72.12
48622;BME280;34421;48.944;9.460;2022-11-25T00:02:34;98461.16;;;4.81;72.51
48622;BME280;34421;48.944;9.460;2022-11-25T00:04:59;98461.50;;;4.78;72.81
48622;BME280;34421;48.944;9.460;2022-11-25T00:07:25;98465.13;;;4.77;72.57
48622;BME280;34421;48.944;9.460;2022-11-25T00:09:50;98466.78;;;4.78;72.49
48622;BME280;34421;48.944;9.460;2022-11-25T00:12:15;98471.69;;;4.81;72.50
48622;BME280;34421;48.944;9.460;2022-11-25T00:14:40;98462.81;;;4.82;72.44
48622;BME280;34421;48.944;9.460;2022-11-25T00:17:06;98466.28;;;4.83;73.06
48622;BME280;34421;48.944;9.460;2022-11-25T00:19:31;98462.47;;;4.85;72.63
48622;BME280;34421;48.944;9.460;2022-11-25T00:21:57;98459.34;;;4.82;73.45
48622;BME280;34421;48.944;9.460;2022-11-25T00:24:23;98465.50;;;4.74;72.00
48622;BME280;34421;48.944;9.460;2022-11-25T00:26:48;98455.63;;;4.68;73.49
48622;BME280;34421;48.944;9.460;2022-11-25T00:29:13;98450.69;;;4.65;71.73
48622;BME280;34421;48.944;9.460;2022-11-25T00:31:39;98454.66;;;4.61;71.81
48622;BME280;34421;48.944;9.460;2022-11-25T00:34:05;98444.47;;;4.57;73.42
48622;BME280;34421;48.944;9.460;2022-11-25T00:36:35;98448.75;;;4.59;72.82
48622;BME280;34421;48.944;9.460;2022-11-25T00:39:04;98457.50;;;4.59;72.73
48622;BME280;34421;48.944;9.460;2022-11-25T00:41:30;98459.00;;;4.53;71.77
48622;BME280;34421;48.944;9.460;2022-11-25T00:44:16;98466.47;;;4.42;72.17
48622;BME280;34421;48.944;9.460;2022-11-25T00:47:02;98458.22;;;4.37;71.67
48622;BME280;34421;48.944;9.460;2022-11-25T00:49:27;98461.56;;;4.30;72.44
48622;BME280;34421;48.944;9.460;2022-11-25T00:51:53;98469.16;;;4.25;71.75
48622;BME280;34421;48.944;9.460;2022-11-25T00:54:18;98465.22;;;4.21;72.62
48622;BME280;34421;48.944;9.460;2022-11-25T00:56:44;98470.00;;;4.18;72.92
48622;BME280;34421;48.944;9.460;2022-11-25T00:59:09;98467.19;;;4.19;72.31
48622;BME280;34421;48.944;9.460;2022-11-25T01:01:35;98469.19;;;4.17;72.69
48622;BME280;34421;48.944;9.460;2022-11-25T01:04:01;98478.72;;;4.18;71.58
48622;BME280;34421;48.944;9.460;2022-11-25T01:06:26;98478.38;;;4.21;71.49
48622;BME280;34421;48.944;9.460;2022-11-25T01:08:52;98476.41;;;4.23;72.51
48622;BME280;34421;48.944;9.460;2022-11-25T01:11:20;98482.16;;;4.27;71.40
48622;BME280;34421;48.944;9.460;2022-11-25T01:13:47;98488.91;;;4.29;71.52
48622;BME280;34421;48.944;9.460;2022-11-25T01:16:15;98482.47;;;4.32;72.47
48622;BME280;34421;48.944;9.460;2022-11-25T01:18:41;98479.66;;;4.33;72.60
48622;BME280;34421;48.944;9.460;2022-11-25T01:23:39;98475.38;;;4.41;72.22
48622;BME280;34421;48.944;9.460;2022-11-25T01:26:06;98473.03;;;4.46;73.48
48622;BME280;34421;48.944;9.460;2022-11-25T01:28:32;98466.13;;;4.45;72.36
48622;BME280;34421;48.944;9.460;2022-11-25T01:31:17;98482.59;;;4.47;73.54
48622;BME280;34421;48.944;9.460;2022-11-25T01:33:43;98484.06;;;4.49;71.89
48622;BME280;34421;48.944;9.460;2022-11-25T01:36:12;98486.53;;;4.51;73.30
48622;BME280;34421;48.944;9.460;2022-11-25T01:38:38;98475.16;;;4.50;72.96
48622;BME280;34421;48.944;9.460;2022-11-25T01:41:06;98470.22;;;4.47;72.32
48622;BME280;34421;48.944;9.460;2022-11-25T01:43:31;98477.00;;;4.42;72.07
48622;BME280;34421;48.944;9.460;2022-11-25T01:48:38;98472.06;;;4.39;72.41
48622;BME280;34421;48.944;9.460;2022-11-25T01:51:25;98468.44;;;4.40;72.62
48622;BME280;34421;48.944;9.460;2022-11-25T01:53:54;98462.03;;;4.34;73.38
48622;BME280;34421;48.944;9.460;2022-11-25T01:56:21;98461.41;;;4.32;71.94
48622;BME280;34421;48.944;9.460;2022-11-25T01:58:48;98463.56;;;4.28;72.93
48622;BME280;34421;48.944;9.460;2022-11-25T02:01:14;98469.47;;;4.30;72.45
48622;BME280;34421;48.944;9.460;2022-11-25T02:03:43;98454.31;;;4.32;72.90
48622;BME280;34421;48.944;9.460;2022-11-25T02:06:16;98462.88;;;4.34;71.54
48622;BME280;34421;48.944;9.460;2022-11-25T02:08:47;98454.63;;;4.38;72.26
48622;BME280;34421;48.944;9.460;2022-11-25T02:11:13;98463.34;;;4.38;72.01
48622;BME280;34421;48.944;9.460;2022-11-25T02:13:40;98465.78;;;4.40;72.34
48622;BME280;34421;48.944;9.460;2022-11-25T02:16:06;98461.53;;;4.39;72.16
48622;BME280;34421;48.944;9.460;2022-11-25T02:18:31;98467.13;;;4.36;72.57
48622;BME280;34421;48.944;9.460;2022-11-25T02:20:57;98465.84;;;4.31;71.39
48622;BME280;34421;48.944;9.460;2022-11-25T02:23:35;98457.59;;;4.34;73.22
48622;BME280;34421;48.944;9.460;2022-11-25T02:26:01;98460.25;;;4.34;72.07
48622;BME280;34421;48.944;9.460;2022-11-25T02:28:29;98465.31;;;4.36;72.63
48622;BME280;34421;48.944;9.460;2022-11-25T02:30:56;98466.81;;;4.39;72.35
48622;BME280;34421;48.944;9.460;2022-11-25T02:33:22;98453.28;;;4.42;73.19
48622;BME280;34421;48.944;9.460;2022-11-25T02:35:58;98467.28;;;4.42;72.90
48622;BME280;34421;48.944;9.460;2022-11-25T02:38:31;98463.66;;;4.43;72.66
48622;BME280;34421;48.944;9.460;2022-11-25T02:43:29;98471.72;;;4.42;71.98
48622;BME280;34421;48.944;9.460;2022-11-25T02:46:09;98467.47;;;4.41;72.56
48622;BME280;34421;48.944;9.460;2022-11-25T02:48:36;98468.44;;;4.40;73.24
48622;BME280;34421;48.944;9.460;2022-11-25T02:51:02;98470.25;;;4.39;73.58
48622;BME280;34421;48.944;9.460;2022-11-25T02:53:28;98463.81;;;4.42;73.57
48622;BME280;34421;48.944;9.460;2022-11-25T02:55:53;98465.78;;;4.48;72.69
48622;BME280;34421;48.944;9.460;2022-11-25T02:58:19;98460.84;;;4.45;73.22
48622;BME280;34421;48.944;9.460;2022-11-25T03:00:45;98456.56;;;4.44;72.35
48622;BME280;34421;48.944;9.460;2022-11-25T03:03:11;98467.13;;;4.44;73.72
48622;BME280;34421;48.944;9.460;2022-11-25T03:05:36;98465.31;;;4.44;72.86
48622;BME280;34421;48.944;9.460;2022-11-25T03:08:02;98466.13;;;4.45;73.42
48622;BME280;34421;48.944;9.460;2022-11-25T03:10:28;98453.63;;;4.39;72.84
48622;BME280;34421;48.944;9.460;2022-11-25T03:12:54;98445.72;;;4.39;72.67
48622;BME280;34421;48.944;9.460;2022-11-25T03:15:19;98435.97;;;4.39;72.94
48622;BME280;34421;48.944;9.460;2022-11-25T03:17:45;98435.47;;;4.44;73.77
48622;BME280;34421;48.944;9.460;2022-11-25T03:20:11;98436.09;;;4.46;73.33
48622;BME280;34421;48.944;9.460;2022-11-25T03:22:37;98438.13;;;4.44;73.96
48622;BME280;34421;48.944;9.460;2022-11-25T03:25:03;98444.22;;;4.44;72.59
48622;BME280;34421;48.944;9.460;2022-11-25T03:27:29;98441.56;;;4.44;72.86
48622;BME280;34421;48.944;9.460;2022-11-25T03:29:54;98443.72;;;4.41;72.87
48622;BME280;34421;48.944;9.460;2022-11-25T03:32:19;98441.25;;;4.39;72.85
48622;BME280;34421;48.944;9.460;2022-11-25T03:34:45;98428.59;;;4.34;73.72
48622;BME280;34421;48.944;9.460;2022-11-25T03:37:10;98434.56;;;4.28;73.69
48622;BME280;34421;48.944;9.460;2022-11-25T03:39:35;98431.75;;;4.22;73.22
48622;BME280;34421;48.944;9.460;2022-11-25T03:42:01;98431.94;;;4.20;72.14
48622;BME280;34421;48.944;9.460;2022-11-25T03:44:26;98431.94;;;4.20;72.97
48622;BME280;34421;48.944;9.460;2022-11-25T03:46:51;98427.66;;;4.19;72.20
48622;BME280;34421;48.944;9.460;2022-11-25T03:49:17;98419.75;;;4.19;73.07
48622;BME280;34421;48.944;9.460;2022-11-25T03:51:42;98415.66;;;4.17;72.58
48622;BME280;34421;48.944;9.460;2022-11-25T03:54:08;98425.69;;;4.13;71.91
48622;BME280;34421;48.944;9.460;2022-11-25T03:56:33;98428.84;;;4.08;72.86
48622;BME280;34421;48.944;9.460;2022-11-25T03:58:58;98428.03;;;4.08;73.26
48622;BME280;34421;48.944;9.460;2022-11-25T04:01:24;98432.47;;;4.07;72.64
48622;BME280;34421;48.944;9.460;2022-11-25T04:03:49;98428.03;;;4.08;72.11
48622;BME280;34421;48.944;9.460;2022-11-25T04:06:14;98427.03;;;4.09;72.69
48622;BME280;34421;48.944;9.460;2022-11-25T04:08:40;98432.47;;;4.07;73.13
48622;BME280;34421;48.944;9.460;2022-11-25T04:11:09;98426.38;;;4.07;72.75
48622;BME280;34421;48.944;9.460;2022-11-25T04:13:34;98430.34;;;4.03;71.92
48622;BME280;34421;48.944;9.460;2022-11-25T04:15:59;98425.25;;;4.01;73.00
48622;BME280;34421;48.944;9.460;2022-11-25T04:18:25;98423.13;;;3.97;72.60
48622;BME280;34421;48.944;9.460;2022-11-25T04:20:50;98438.28;;;3.95;73.25
48622;BME280;34421;48.944;9.460;2022-11-25T04:23:15;98428.56;;;3.95;71.87
48622;BME280;34421;48.944;9.460;2022-11-25T04:25:41;98427.94;;;3.93;72.42
48622;BME280;34421;48.944;9.460;2022-11-25T04:28:06;98431.38;;;3.94;73.15
48622;BME280;34421;48.944;9.460;2022-11-25T04:30:32;98436.81;;;3.92;72.09
48622;BME280;34421;48.944;9.460;2022-11-25T04:32:57;98428.06;;;3.92;72.13
48622;BME280;34421;48.944;9.460;2022-11-25T04:35:23;98423.97;;;3.89;72.26
48622;BME280;34421;48.944;9.460;2022-11-25T04:37:48;98418.88;;;3.87;72.93
48622;BME280;34421;48.944;9.460;2022-11-25T04:40:14;98424.63;;;3.91;72.28
48622;BME280;34421;48.944;9.460;2022-11-25T04:42:39;98419.69;;;3.96;72.49
48622;BME280;34421;48.944;9.460;2022-11-25T04:45:10;98415.72;;;4.00;72.35
48622;BME280;34421;48.944;9.460;2022-11-25T04:47:36;98416.38;;;4.02;73.43
48622;BME280;34421;48.944;9.460;2022-11-25T04:50:02;98419.47;;;4.06;73.93
48622;BME280;34421;48.944;9.460;2022-11-25T04:52:28;98424.41;;;4.09;73.35
48622;BME280;34421;48.944;9.460;2022-11-25T04:54:53;98418.97;;;4.10;73.84
48622;BME280;34421;48.944;9.460;2022-11-25T04:57:19;98430.34;;;4.11;72.73
48622;BME280;34421;48.944;9.460;2022-11-25T04:59:44;98429.53;;;4.10;72.80
48622;BME280;34421;48.944;9.460;2022-11-25T05:02:14;98426.56;;;4.05;73.70
48622;BME280;34421;48.944;9.460;2022-11-25T05:04:41;98429.34;;;4.04;73.64
48622;BME280;34421;48.944;9.460;2022-11-25T05:07:07;98420.47;;;4.05;72.99
48622;BME280;34421;48.944;9.460;2022-11-25T05:09:33;98419.28;;;4.07;73.69
48622;BME280;34421;48.944;9.460;2022-11-25T05:11:58;98401.34;;;4.11;72.80
48622;BME280;34421;48.944;9.460;2022-11-25T05:14:24;98417.97;;;4.11;73.88
48622;BME280;34421;48.944;9.460;2022-11-25T05:16:50;98413.88;;;4.09;72.75
48622;BME280;34421;48.944;9.460;2022-11-25T05:19:15;98419.81;;;4.11;72.86
48622;BME280;34421;48.944;9.460;2022-11-25T05:21:41;98417.16;;;4.11;72.50
48622;BME280;34421;48.944;9.460;2022-11-25T05:24:06;98427.19;;;4.07;72.83
48622;BME280;34421;48.944;9.460;2022-11-25T05:26:31;98441.38;;;4.06;72.29
48622;BME280;34421;48.944;9.460;2022-11-25T05:28:57;98443.34;;;4.04;72.28
48622;BME280;34421;48.944;9.460;2022-11-25T05:31:22;98452.09;;;4.05;73.23
48622;BME280;34421;48.944;9.460;2022-11-25T05:33:47;98445.50;;;4.01;73.42
48622;BME280;34421;48.944;9.460;2022-11-25T05:36:13;98453.94;;;3.96;73.44
48622;BME280;34421;48.944;9.460;2022-11-25T05:38:38;98441.25;;;3.92;73.23
48622;BME280;34421;48.944;9.460;2022-11-25T05:41:05;98437.31;;;3.87;73.04
48622;BME280;34421;48.944;9.460;2022-11-25T05:43:31;98438.28;;;3.86;72.76
48622;BME280;34421;48.944;9.460;2022-11-25T05:45:56;98439.44;;;3.92;73.31
48622;BME280;34421;48.944;9.460;2022-11-25T05:48:22;98440.75;;;3.96;73.41
48622;BME280;34421;48.944;9.460;2022-11-25T05:50:47;98439.94;;;3.96;72.17
48622;BME280;34421;48.944;9.460;2022-11-25T05:53:12;98450.47;;;3.96;72.52
48622;BME280;34421;48.944;9.460;2022-11-25T05:55:41;98454.28;;;3.93;73.18
48622;BME280;34421;48.944;9.460;2022-11-25T05:58:06;98451.13;;;3.89;73.35
48622;BME280;34421;48.944;9.460;2022-11-25T06:00:32;98449.81;;;3.85;73.71
48622;BME280;34421;48.944;9.460;2022-11-25T06:02:57;98451.47;;;3.86;73.32
48622;BME280;34421;48.944;9.460;2022-11-25T06:05:22;98465.97;;;3.91;73.69
48622;BME280;34421;48.944;9.460;2022-11-25T06:07:48;98468.59;;;3.91;73.38
48622;BME280;34421;48.944;9.460;2022-11-25T06:10:17;98475.34;;;3.93;73.80
48622;BME280;34421;48.944;9.460;2022-11-25T06:12:43;98476.16;;;3.94;73.46
48622;BME280;34421;48.944;9.460;2022-11-25T06:15:09;98472.19;;;3.89;72.36
48622;BME280;34421;48.944;9.460;2022-11-25T06:17:35;98477.16;;;3.84;72.47
48622;BME280;34421;48.944;9.460;2022-11-25T06:20:00;98474.53;;;3.84;72.90
48622;BME280;34421;48.944;9.460;2022-11-25T06:22:25;98480.13;;;3.81;73.70
48622;BME280;34421;48.944;9.460;2022-11-25T06:24:50;98484.41;;;3.82;72.29
48622;BME280;34421;48.944;9.460;2022-11-25T06:27:16;98496.75;;;3.82;73.83
48622;BME280;34421;48.944;9.460;2022-11-25T06:29:41;98491.31;;;3.83;73.08
48622;BME280;34421;48.944;9.460;2022-11-25T06:32:06;98492.31;;;3.82;73.63
48622;BME280;34421;48.944;9.460;2022-11-25T06:34:32;98488.34;;;3.86;73.16
48622;BME280;34421;48.944;9.460;2022-11-25T06:36:57;98491.97;;;3.85;73.17
48622;BME280;34421;48.944;9.460;2022-11-25T06:39:22;98489.00;;;3.88;73.66
48622;BME280;34421;48.944;9.460;2022-11-25T06:41:47;98489.66;;;3.91;72.36
48622;BME280;34421;48.944;9.460;2022-11-25T06:44:13;98493.28;;;3.89;73.64
48622;BME280;34421;48.944;9.460;2022-11-25T06:46:39;98493.44;;;3.88;73.20
48622;BME280;34421;48.944;9.460;2022-11-25T06:49:04;98491.63;;;3.88;72.83
48622;BME280;34421;48.944;9.460;2022-11-25T06:51:31;98505.81;;;3.87;73.05
48622;BME280;34421;48.944;9.460;2022-11-25T06:53:56;98513.38;;;3.82;73.96
48622;BME280;34421;48.944;9.460;2022-11-25T06:56:23;98515.53;;;3.79;72.37
48622;BME280;34421;48.944;9.460;2022-11-25T06:58:50;98506.00;;;3.78;73.24
48622;BME280;34421;48.944;9.460;2022-11-25T07:01:21;98507.63;;;3.79;72.29
48622;BME280;34421;48.944;9.460;2022-11-25T07:03:49;98513.03;;;3.77;72.96
48622;BME280;34421;48.944;9.460;2022-11-25T07:06:16;98509.09;;;3.73;73.59
48622;BME280;34421;48.944;9.460;2022-11-25T07:08:42;98509.44;;;3.70;72.89
48622;BME280;34421;48.944;9.460;2022-11-25T07:11:12;98509.44;;;3.70;72.54
48622;BME280;34421;48.944;9.460;2022-11-25T07:13:39;98509.44;;;3.70;72.51
48622;BME280;34421;48.944;9.460;2022-11-25T07:16:05;98508.63;;;3.70;72.60
48622;BME280;34421;48.944;9.460;2022-11-25T07:18:32;98512.41;;;3.67;72.82
48622;BME280;34421;48.944;9.460;2022-11-25T07:21:03;98524.75;;;3.67;73.40
48622;BME280;34421;48.944;9.460;2022-11-25T07:23:29;98530.16;;;3.65;72.79
48622;BME280;34421;48.944;9.460;2022-11-25T07:25:54;98532.31;;;3.70;73.69
48622;BME280;34421;48.944;9.460;2022-11-25T07:28:20;98524.56;;;3.76;73.65
48622;BME280;34421;48.944;9.460;2022-11-25T07:30:45;98522.28;;;3.81;73.20
48622;BME280;34421;48.944;9.460;2022-11-25T07:33:10;98527.84;;;3.86;72.38
48622;BME280;34421;48.944;9.460;2022-11-25T07:35:36;98528.19;;;3.92;72.26
48622;BME280;34421;48.944;9.460;2022-11-25T07:38:01;98529.31;;;3.97;72.46
48622;BME280;34421;48.944;9.460;2022-11-25T07:40:26;98522.72;;;4.01;72.51
48622;BME280;34421;48.944;9.460;2022-11-25T07:42:52;98532.59;;;4.07;73.29
48622;BME280;34421;48.944;9.460;2022-11-25T07:45:17;98536.38;;;4.13;73.00
48622;BME280;34421;48.944;9.460;2022-11-25T07:47:43;98543.78;;;4.18;73.03
48622;BME280;34421;48.944;9.460;2022-11-25T07:50:09;98549.53;;;4.21;72.84
48622;BME280;34421;48.944;9.460;2022-11-25T07:52:37;98554.81;;;4.29;71.91
48622;BME280;34421;48.944;9.460;2022-11-25T07:55:03;98558.06;;;4.40;72.88
48622;BME280;34421;48.944;9.460;2022-11-25T07:57:28;98562.84;;;4.52;73.56
48622;BME280;34421;48.944;9.460;2022-11-25T07:59:53;98561.81;;;4.62;72.49
48622;BME280;34421;48.944;9.460;2022-11-25T08:02:19;98568.69;;;4.71;73.02
48622;BME280;34421;48.944;9.460;2022-11-25T08:04:44;98559.91;;;4.78;73.07
48622;BME280;34421;48.944;9.460;2022-11-25T08:07:09;98559.88;;;4.87;71.71
48622;BME280;34421;48.944;9.460;2022-11-25T08:09:35;98557.22;;;4.95;72.93
48622;BME280;34421;48.944;9.460;2022-11-25T08:12:00;98566.75;;;5.04;71.61
48622;BME280;34421;48.944;9.460;2022-11-25T08:14:25;98557.97;;;5.12;72.00
48622;BME280;34421;48.944;9.460;2022-11-25T08:16:51;98565.00;;;5.19;72.52
48622;BME280;34421;48.944;9.460;2022-11-25T08:19:16;98561.06;;;5.23;73.61
48622;BME280;34421;48.944;9.460;2022-11-25T08:21:42;98569.25;;;5.29;73.20
48622;BME280;34421;48.944;9.460;2022-11-25T08:24:19;98563.25;;;5.35;73.30
48622;BME280;34421;48.944;9.460;2022-11-25T08:26:44;98559.94;;;5.41;72.87
48622;BME280;34421;48.944;9.460;2022-11-25T08:29:12;98564.84;;;5.44;73.13
48622;BME280;34421;48.944;9.460;2022-11-25T08:31:38;98578.06;;;5.44;74.01
48622;BME280;34421;48.944;9.460;2022-11-25T08:34:06;98585.81;;;5.45;73.43
48622;BME280;34421;48.944;9.460;2022-11-25T08:36:33;98590.75;;;5.48;73.24
48622;BME280;34421;48.944;9.460;2022-11-25T08:39:01;98584.66;;;5.48;72.94
48622;BME280;34421;48.944;9.460;2022-11-25T08:41:34;98582.28;;;5.53;74.16
48622;BME280;34421;48.944;9.460;2022-11-25T08:44:02;98582.91;;;5.63;74.14
48622;BME280;34421;48.944;9.460;2022-11-25T08:46:31;98583.81;;;5.70;73.39
48622;BME280;34421;48.944;9.460;2022-11-25T08:48:58;98583.13;;;5.77;74.47
48622;BME280;34421;48.944;9.460;2022-11-25T08:51:27;98574.84;;;5.80;73.54
48622;BME280;34421;48.944;9.460;2022-11-25T08:53:52;98575.50;;;5.82;74.22
48622;BME280;34421;48.944;9.460;2022-11-25T08:56:20;98567.88;;;5.87;74.53
48622;BME280;34421;48.944;9.460;2022-11-25T08:58:46;98562.38;;;5.88;74.76
48622;BME280;34421;48.944;9.460;2022-11-25T09:01:13;98557.59;;;5.92;74.94
48622;BME280;34421;48.944;9.460;2022-11-25T09:03:42;98556.91;;;5.98;74.82
48622;BME280;34421;48.944;9.460;2022-11-25T09:06:08;98557.97;;;6.04;74.32
48622;BME280;34421;48.944;9.460;2022-11-25T09:08:35;98558.84;;;6.04;74.41
48622;BME280;34421;48.944;9.460;2022-11-25T09:11:00;98562.28;;;6.05;74.50
48622;BME280;34421;48.944;9.460;2022-11-25T09:13:26;98581.09;;;6.10;75.09
48622;BME280;34421;48.944;9.460;2022-11-25T09:15:52;98591.56;;;6.18;73.71
48622;BME280;34421;48.944;9.460;2022-11-25T09:18:17;98592.06;;;6.22;73.79
48622;BME280;34421;48.944;9.460;2022-11-25T09:20:45;98588.41;;;6.23;74.48
48622;BME280;34421;48.944;9.460;2022-11-25T09:23:11;98598.25;;;6.29;74.90
48622;BME280;34421;48.944;9.460;2022-11-25T09:25:37;98601.44;;;6.39;75.24
48622;BME280;34421;48.944;9.460;2022-11-25T09:28:02;98598.09;;;6.45;74.64
48622;BME280;34421;48.944;9.460;2022-11-25T09:30:28;98596.31;;;6.60;73.98
48622;BME280;34421;48.944;9.460;2022-11-25T09:32:54;98594.56;;;6.68;74.22
48622;BME280;34421;48.944;9.460;2022-11-25T09:35:21;98590.81;;;6.77;74.92
48622;BME280;34421;48.944;9.460;2022-11-25T09:37:47;98590.16;;;6.90;74.87
48622;BME280;34421;48.944;9.460;2022-11-25T09:43:31;98595.53;;;7.11;74.51
48622;BME280;34421;48.944;9.460;2022-11-25T09:46:43;98602.38;;;7.20;74.61
48622;BME280;34421;48.944;9.460;2022-11-25T09:55:02;98607.88;;;7.40;75.09
48622;BME280;34421;48.944;9.460;2022-11-25T10:02:40;98619.41;;;7.47;75.48
48622;BME280;34421;48.944;9.460;2022-11-25T10:05:19;98614.09;;;7.47;75.48
48622;BME280;34421;48.944;9.460;2022-11-25T10:07:51;98613.47;;;7.45;75.75
48622;BME280;34421;48.944;9.460;2022-11-25T10:10:29;98610.44;;;7.48;75.79
48622;BME280;34421;48.944;9.460;2022-11-25T10:12:56;98604.38;;;7.54;75.94
48622;BME280;34421;48.944;9.460;2022-11-25T10:15:35;98603.63;;;7.61;75.74
48622;BME280;34421;48.944;9.460;2022-11-25T10:18:36;98602.50;;;7.70;75.77
48622;BME280;34421;48.944;9.460;2022-11-25T10:20:57;98607.31;;;7.81;76.40
48622;BME280;34421;48.944;9.460;2022-11-25T10:23:36;98601.50;;;7.92;75.78
48622;BME280;34421;48.944;9.460;2022-11-25T10:26:10;98599.59;;;8.08;76.38
48622;BME280;34421;48.944;9.460;2022-11-25T10:28:37;98594.41;;;8.21;75.72
48622;BME280;34421;48.944;9.460;2022-11-25T10:31:17;98591.84;;;8.34;76.63
48622;BME280;34421;48.944;9.460;2022-11-25T10:36:17;98599.94;;;8.48;76.23
48622;BME280;34421;48.944;9.460;2022-11-25T10:41:34;98591.59;;;8.51;76.32
48622;BME280;34421;48.944;9.460;2022-11-25T10:44:02;98596.28;;;8.49;76.45
48622;BME280;34421;48.944;9.460;2022-11-25T10:46:42;98596.28;;;8.49;76.27
48622;BME280;34421;48.944;9.460;2022-11-25T10:52:13;98608.28;;;8.44;76.89
48622;BME280;34421;48.944;9.460;2022-11-25T10:54:55;98610.31;;;8.42;76.71
48622;BME280;34421;48.944;9.460;2022-11-25T10:57:26;98606.00;;;8.41;76.88
48622;BME280;34421;48.944;9.460;2022-11-25T10:59:59;98603.56;;;8.40;77.36
48622;BME280;34421;48.944;9.460;2022-11-25T11:02:26;98602.34;;;8.42;77.25
48622;BME280;34421;48.944;9.460;2022-11-25T11:07:42;98609.22;;;8.37;76.93
48622;BME280;34421;48.944;9.460;2022-11-25T11:13:03;98611.06;;;8.36;77.71
48622;BME280;34421;48.944;9.460;2022-11-25T11:15:43;98614.88;;;8.27;77.01
48622;BME280;34421;48.944;9.460;2022-11-25T11:18:40;98623.22;;;8.24;77.21
48622;BME280;34421;48.944;9.460;2022-11-25T11:21:09;98637.28;;;8.25;76.74
48622;BME280;34421;48.944;9.460;2022-11-25T11:23:47;98636.22;;;8.19;76.68
48622;BME280;34421;48.944;9.460;2022-11-25T11:26:24;98636.84;;;8.21;77.59
48622;BME280;34421;48.944;9.460;2022-11-25T11:29:04;98638.75;;;8.27;77.04
48622;BME280;34421;48.944;9.460;2022-11-25T11:31:33;98636.56;;;8.37;77.02
48622;BME280;34421;48.944;9.460;2022-11-25T11:34:10;98636.66;;;8.44;77.11
48622;BME280;34421;48.944;9.460;2022-11-25T11:39:56;98649.34;;;8.49;76.90
48622;BME280;34421;48.944;9.460;2022-11-25T11:42:49;98649.75;;;8.46;77.16
48622;BME280;34421;48.944;9.460;2022-11-25T11:53:27;98675.47;;;8.45;77.57
48622;BME280;34421;48.944;9.460;2022-11-25T12:02:11;98694.06;;;8.52;77.53
48622;BME280;34421;48.944;9.460;2022-11-25T12:04:14;98687.75;;;8.53;77.55
48622;BME280;34421;48.944;9.460;2022-11-25T12:06:45;98689.22;;;8.55;77.93
48622;BME280;34421;48.944;9.460;2022-11-25T12:09:17;98686.16;;;8.58;77.93
48622;BME280;34421;48.944;9.460;2022-11-25T12:11:49;98684.56;;;8.64;78.05
48622;BME280;34421;48.944;9.460;2022-11-25T12:14:38;98687.66;;;8.67;77.86
48622;BME280;34421;48.944;9.460;2022-11-25T12:17:15;98680.34;;;8.70;77.93
48622;BME280;34421;48.944;9.460;2022-11-25T12:19:48;98692.78;;;8.69;77.81
48622;BME280;34421;48.944;9.460;2022-11-25T12:22:41;98687.47;;;8.69;78.11
48622;BME280;34421;48.944;9.460;2022-11-25T12:25:22;98689.13;;;8.70;78.67
48622;BME280;34421;48.944;9.460;2022-11-25T12:30:18;98693.41;;;8.71;78.27
48622;BME280;34421;48.944;9.460;2022-11-25T12:40:57;98707.06;;;8.68;78.91
48622;BME280;34421;48.944;9.460;2022-11-25T12:46:12;98700.75;;;8.69;78.78
48622;BME280;34421;48.944;9.460;2022-11-25T12:48:41;98714.59;;;8.64;78.75
48622;BME280;34421;48.944;9.460;2022-11-25T12:51:22;98719.09;;;8.64;78.95
48622;BME280;34421;48.944;9.460;2022-11-25T12:59:45;98722.13;;;8.61;79.24
48622;BME280;34421;48.944;9.460;2022-11-25T13:08:22;98746.41;;;8.58;79.38
48622;BME280;34421;48.944;9.460;2022-11-25T13:10:58;98740.44;;;8.56;79.98
48622;BME280;34421;48.944;9.460;2022-11-25T13:13:45;98749.22;;;8.56;79.39
48622;BME280;34421;48.944;9.460;2022-11-25T13:16:13;98750.69;;;8.59;80.07
48622;BME280;34421;48.944;9.460;2022-11-25T13:18:41;98753.97;;;8.61;79.49
48622;BME280;34421;48.944;9.460;2022-11-25T13:21:13;98764.22;;;8.64;79.79
48622;BME280;34421;48.944;9.460;2022-11-25T13:23:53;98765.66;;;8.66;79.63
48622;BME280;34421;48.944;9.460;2022-11-25T13:28:59;98759.59;;;8.73;80.26
48622;BME280;34421;48.944;9.460;2022-11-25T13:31:33;98761.44;;;8.72;80.18
48622;BME280;34421;48.944;9.460;2022-11-25T13:34:25;98772.28;;;8.77;80.02
48622;BME280;34421;48.944;9.460;2022-11-25T13:36:55;98770.09;;;8.81;79.89
48622;BME280;34421;48.944;9.460;2022-11-25T13:39:29;98774.19;;;8.83;80.11
48622;BME280;34421;48.944;9.460;2022-11-25T13:42:20;98768.50;;;8.86;80.35
48622;BME280;34421;48.944;9.460;2022-11-25T13:44:51;98772.19;;;8.92;79.70
48622;BME280;34421;48.944;9.460;2022-11-25T13:49:54;98771.88;;;9.02;80.49
48622;BME280;34421;48.944;9.460;2022-11-25T13:52:32;98779.47;;;9.05;80.38
48622;BME280;34421;48.944;9.460;2022-11-25T13:57:44;98772.88;;;9.01;80.58
48622;BME280;34421;48.944;9.460;2022-11-25T14:02:42;98773.25;;;8.98;80.52
48622;BME280;34421;48.944;9.460;2022-11-25T14:10:23;98790.94;;;9.12;80.59
48622;BME280;34421;48.944;9.460;2022-11-25T14:21:25;98808.53;;;9.13;80.24
48622;BME280;34421;48.944;9.460;2022-11-25T14:26:35;98812.41;;;9.10;80.42
48622;BME280;34421;48.944;9.460;2022-11-25T14:31:46;98823.84;;;9.11;81.04
48622;BME280;34421;48.944;9.460;2022-11-25T14:34:29;98833.06;;;9.15;80.38
48622;BME280;34421;48.944;9.460;2022-11-25T14:37:08;98837.38;;;9.16;80.65
48622;BME280;34421;48.944;9.460;2022-11-25T14:39:59;98840.41;;;9.13;81.30
48622;BME280;34421;48.944;9.460;2022-11-25T14:42:24;98841.81;;;9.09;80.99
48622;BME280;34421;48.944;9.460;2022-11-25T14:44:53;98834.03;;;9.07;80.40
48622;BME280;34421;48.944;9.460;2022-11-25T14:47:27;98840.16;;;9.08;80.68
48622;BME280;34421;48.944;9.460;2022-11-25T14:49:55;98833.03;;;9.08;81.78
48622;BME280;34421;48.944;9.460;2022-11-25T14:52:33;98838.97;;;9.10;81.53
48622;BME280;34421;48.944;9.460;2022-11-25T14:55:01;98842.44;;;9.11;80.85
48622;BME280;34421;48.944;9.460;2022-11-25T14:57:35;98843.66;;;9.08;81.72
48622;BME280;34421;48.944;9.460;2022-11-25T15:00:05;98848.13;;;9.08;81.39
48622;BME280;34421;48.944;9.460;2022-11-25T15:02:34;98857.75;;;9.09;80.69
48622;BME280;34421;48.944;9.460;2022-11-25T15:05:21;98857.09;;;9.07;80.80